sensor_id;sensor_type;location;lat;lon;timestamp;P1;durP1;ratioP1;P2;durP2;ratioP2
17528;SDS011;8882;53.192;8.184;2022-07-23T00:00:58;1.70;;;1.60;;
17528;SDS011;8882;53.192;8.184;2022-07-23T00:03:23;2.87;;;1.40;;
17528;SDS011;8882;53.192;8.184;2022-07-23T00:05:49;4.13;;;1.50;;
17528;SDS011;8882;53.192;8.184;2022-07-23T00:08:15;3.50;;;2.13;;
17528;SDS011;8882;53.192;8.184;2022-07-23T00:10:40;6.83;;;1.83;;
17528;SDS011;8882;53.192;8.184;2022-07-23T00:13:06;2.27;;;1.27;;
17528;SDS011;8882;53.192;8.184;2022-07-23T00:15:32;1.77;;;1.57;;
17528;SDS011;8882;53.192;8.184;2022-07-23T00:17:57;3.43;;;1.50;;
17528;SDS011;8882;53.192;8.184;2022-07-23T00:20:23;3.53;;;1.47;;
17528;SDS011;8882;53.192;8.184;2022-07-23T00:22:49;3.53;;;1.60;;
17528;SDS011;8882;53.192;8.184;2022-07-23T00:25:16;2.40;;;1.57;;
17528;SDS011;8882;53.192;8.184;2022-07-23T00:27:42;1.90;;;1.70;;
17528;SDS011;8882;53.192;8.184;2022-07-23T00:30:08;3.20;;;1.20;;
17528;SDS011;8882;53.192;8.184;2022-07-23T00:32:51;3.53;;;1.50;;
17528;SDS011;8882;53.192;8.184;2022-07-23T00:35:22;3.00;;;1.87;;
17528;SDS011;8882;53.192;8.184;2022-07-23T00:37:52;7.43;;;2.07;;
17528;SDS011;8882;53.192;8.184;2022-07-23T00:40:18;2.60;;;1.80;;
17528;SDS011;8882;53.192;8.184;2022-07-23T00:42:44;5.17;;;1.90;;
17528;SDS011;8882;53.192;8.184;2022-07-23T00:45:10;4.10;;;2.23;;
17528;SDS011;8882;53.192;8.184;2022-07-23T00:47:35;2.73;;;1.67;;
17528;SDS011;8882;53.192;8.184;2022-07-23T00:50:02;4.40;;;1.97;;
17528;SDS011;8882;53.192;8.184;2022-07-23T00:52:29;1.93;;;1.57;;
17528;SDS011;8882;53.192;8.184;2022-07-23T00:54:55;4.10;;;2.07;;
17528;SDS011;8882;53.192;8.184;2022-07-23T00:57:21;3.80;;;1.47;;
17528;SDS011;8882;53.192;8.184;2022-07-23T00:59:47;2.47;;;1.87;;
17528;SDS011;8882;53.192;8.184;2022-07-23T01:02:12;2.20;;;1.70;;
17528;SDS011;8882;53.192;8.184;2022-07-23T01:04:38;2.47;;;1.50;;
17528;SDS011;8882;53.192;8.184;2022-07-23T01:07:03;2.00;;;1.80;;
17528;SDS011;8882;53.192;8.184;2022-07-23T01:09:29;4.43;;;2.00;;
17528;SDS011;8882;53.192;8.184;2022-07-23T01:11:56;2.40;;;2.20;;
17528;SDS011;8882;53.192;8.184;2022-07-23T01:14:23;2.00;;;1.87;;
17528;SDS011;8882;53.192;8.184;2022-07-23T01:16:48;3.03;;;1.77;;
17528;SDS011;8882;53.192;8.184;2022-07-23T01:19:15;3.70;;;2.00;;
17528;SDS011;8882;53.192;8.184;2022-07-23T01:21:43;2.33;;;2.13;;
17528;SDS011;8882;53.192;8.184;2022-07-23T01:24:13;2.13;;;1.70;;
17528;SDS011;8882;53.192;8.184;2022-07-23T01:26:40;2.13;;;1.67;;
17528;SDS011;8882;53.192;8.184;2022-07-23T01:29:09;3.63;;;2.13;;
17528;SDS011;8882;53.192;8.184;2022-07-23T01:31:34;2.77;;;1.77;;
17528;SDS011;8882;53.192;8.184;2022-07-23T01:34:00;2.03;;;1.63;;
17528;SDS011;8882;53.192;8.184;2022-07-23T01:36:26;5.03;;;2.03;;
17528;SDS011;8882;53.192;8.184;2022-07-23T01:38:52;2.83;;;1.53;;
17528;SDS011;8882;53.192;8.184;2022-07-23T01:41:17;3.23;;;2.07;;
17528;SDS011;8882;53.192;8.184;2022-07-23T01:43:43;2.07;;;1.60;;
17528;SDS011;8882;53.192;8.184;2022-07-23T01:46:09;2.70;;;1.47;;
17528;SDS011;8882;53.192;8.184;2022-07-23T01:48:35;2.10;;;1.40;;
17528;SDS011;8882;53.192;8.184;2022-07-23T01:51:00;4.10;;;1.50;;
17528;SDS011;8882;53.192;8.184;2022-07-23T01:53:26;3.40;;;1.50;;
17528;SDS011;8882;53.192;8.184;2022-07-23T01:55:52;2.47;;;1.50;;
17528;SDS011;8882;53.192;8.184;2022-07-23T01:58:17;1.83;;;1.60;;
17528;SDS011;8882;53.192;8.184;2022-07-23T02:00:43;1.90;;;1.80;;
17528;SDS011;8882;53.192;8.184;2022-07-23T02:03:08;2.70;;;1.97;;
17528;SDS011;8882;53.192;8.184;2022-07-23T02:05:34;3.70;;;1.83;;
17528;SDS011;8882;53.192;8.184;2022-07-23T02:08:00;4.43;;;2.10;;
17528;SDS011;8882;53.192;8.184;2022-07-23T02:10:26;1.83;;;1.43;;
17528;SDS011;8882;53.192;8.184;2022-07-23T02:12:52;2.87;;;1.67;;
17528;SDS011;8882;53.192;8.184;2022-07-23T02:15:18;1.70;;;1.60;;
17528;SDS011;8882;53.192;8.184;2022-07-23T02:17:43;2.57;;;1.90;;
17528;SDS011;8882;53.192;8.184;2022-07-23T02:20:10;2.63;;;1.43;;
17528;SDS011;8882;53.192;8.184;2022-07-23T02:22:36;4.53;;;2.00;;
17528;SDS011;8882;53.192;8.184;2022-07-23T02:25:05;2.90;;;1.87;;
17528;SDS011;8882;53.192;8.184;2022-07-23T02:27:31;1.70;;;1.50;;
17528;SDS011;8882;53.192;8.184;2022-07-23T02:29:57;3.13;;;1.87;;
17528;SDS011;8882;53.192;8.184;2022-07-23T02:32:23;6.20;;;2.20;;
17528;SDS011;8882;53.192;8.184;2022-07-23T02:34:49;2.90;;;1.93;;
17528;SDS011;8882;53.192;8.184;2022-07-23T02:37:14;5.67;;;2.03;;
17528;SDS011;8882;53.192;8.184;2022-07-23T02:39:40;3.90;;;1.70;;
17528;SDS011;8882;53.192;8.184;2022-07-23T02:42:06;3.87;;;2.13;;
17528;SDS011;8882;53.192;8.184;2022-07-23T02:44:32;2.23;;;1.80;;
17528;SDS011;8882;53.192;8.184;2022-07-23T02:46:57;7.60;;;1.97;;
17528;SDS011;8882;53.192;8.184;2022-07-23T02:49:23;3.57;;;2.07;;
17528;SDS011;8882;53.192;8.184;2022-07-23T02:51:48;2.27;;;2.07;;
17528;SDS011;8882;53.192;8.184;2022-07-23T02:54:14;3.80;;;2.13;;
17528;SDS011;8882;53.192;8.184;2022-07-23T02:56:39;2.57;;;1.90;;
17528;SDS011;8882;53.192;8.184;2022-07-23T02:59:05;3.00;;;1.90;;
17528;SDS011;8882;53.192;8.184;2022-07-23T03:01:30;4.67;;;2.43;;
17528;SDS011;8882;53.192;8.184;2022-07-23T03:03:56;4.27;;;2.40;;
17528;SDS011;8882;53.192;8.184;2022-07-23T03:06:21;2.17;;;1.87;;
17528;SDS011;8882;53.192;8.184;2022-07-23T03:08:47;4.17;;;1.80;;
17528;SDS011;8882;53.192;8.184;2022-07-23T03:11:12;1.70;;;1.60;;
17528;SDS011;8882;53.192;8.184;2022-07-23T03:13:38;2.10;;;1.90;;
17528;SDS011;8882;53.192;8.184;2022-07-23T03:16:05;3.53;;;1.70;;
17528;SDS011;8882;53.192;8.184;2022-07-23T03:18:31;2.83;;;1.90;;
17528;SDS011;8882;53.192;8.184;2022-07-23T03:20:57;3.53;;;1.70;;
17528;SDS011;8882;53.192;8.184;2022-07-23T03:23:22;2.90;;;1.80;;
17528;SDS011;8882;53.192;8.184;2022-07-23T03:25:48;2.40;;;1.80;;
17528;SDS011;8882;53.192;8.184;2022-07-23T03:28:14;3.10;;;1.77;;
17528;SDS011;8882;53.192;8.184;2022-07-23T03:30:41;2.53;;;1.80;;
17528;SDS011;8882;53.192;8.184;2022-07-23T03:33:07;4.37;;;1.93;;
17528;SDS011;8882;53.192;8.184;2022-07-23T03:35:32;2.23;;;2.03;;
17528;SDS011;8882;53.192;8.184;2022-07-23T03:37:58;3.90;;;2.07;;
17528;SDS011;8882;53.192;8.184;2022-07-23T03:40:23;1.90;;;1.80;;
17528;SDS011;8882;53.192;8.184;2022-07-23T03:42:49;3.30;;;2.20;;
17528;SDS011;8882;53.192;8.184;2022-07-23T03:45:14;2.20;;;2.00;;
17528;SDS011;8882;53.192;8.184;2022-07-23T03:47:40;2.70;;;2.00;;
17528;SDS011;8882;53.192;8.184;2022-07-23T03:50:05;3.03;;;2.03;;
17528;SDS011;8882;53.192;8.184;2022-07-23T03:52:31;4.17;;;1.90;;
17528;SDS011;8882;53.192;8.184;2022-07-23T03:54:57;4.17;;;2.30;;
17528;SDS011;8882;53.192;8.184;2022-07-23T03:57:22;4.37;;;2.47;;
17528;SDS011;8882;53.192;8.184;2022-07-23T03:59:48;2.37;;;1.90;;
17528;SDS011;8882;53.192;8.184;2022-07-23T04:02:13;2.27;;;1.90;;
17528;SDS011;8882;53.192;8.184;2022-07-23T04:04:39;4.67;;;2.00;;
17528;SDS011;8882;53.192;8.184;2022-07-23T04:07:04;4.77;;;2.10;;
17528;SDS011;8882;53.192;8.184;2022-07-23T04:09:32;2.27;;;1.97;;
17528;SDS011;8882;53.192;8.184;2022-07-23T04:11:57;2.73;;;2.30;;
17528;SDS011;8882;53.192;8.184;2022-07-23T04:14:23;3.70;;;2.27;;
17528;SDS011;8882;53.192;8.184;2022-07-23T04:16:48;2.00;;;1.80;;
17528;SDS011;8882;53.192;8.184;2022-07-23T04:19:14;2.30;;;2.10;;
17528;SDS011;8882;53.192;8.184;2022-07-23T04:21:39;2.10;;;1.90;;
17528;SDS011;8882;53.192;8.184;2022-07-23T04:24:05;2.97;;;2.03;;
17528;SDS011;8882;53.192;8.184;2022-07-23T04:26:31;3.20;;;2.37;;
17528;SDS011;8882;53.192;8.184;2022-07-23T04:28:56;2.93;;;2.07;;
17528;SDS011;8882;53.192;8.184;2022-07-23T04:31:22;3.97;;;2.27;;
17528;SDS011;8882;53.192;8.184;2022-07-23T04:33:47;3.43;;;2.10;;
17528;SDS011;8882;53.192;8.184;2022-07-23T04:36:13;2.40;;;1.83;;
17528;SDS011;8882;53.192;8.184;2022-07-23T04:38:38;2.20;;;1.87;;
17528;SDS011;8882;53.192;8.184;2022-07-23T04:41:04;2.93;;;2.20;;
17528;SDS011;8882;53.192;8.184;2022-07-23T04:43:29;4.17;;;2.57;;
17528;SDS011;8882;53.192;8.184;2022-07-23T04:45:55;2.93;;;2.27;;
17528;SDS011;8882;53.192;8.184;2022-07-23T04:48:20;3.70;;;2.30;;
17528;SDS011;8882;53.192;8.184;2022-07-23T04:50:46;4.33;;;2.40;;
17528;SDS011;8882;53.192;8.184;2022-07-23T04:53:12;6.93;;;3.07;;
17528;SDS011;8882;53.192;8.184;2022-07-23T04:55:37;3.63;;;2.60;;
17528;SDS011;8882;53.192;8.184;2022-07-23T04:58:03;4.40;;;2.30;;
17528;SDS011;8882;53.192;8.184;2022-07-23T05:00:28;3.50;;;2.37;;
17528;SDS011;8882;53.192;8.184;2022-07-23T05:02:54;4.23;;;2.13;;
17528;SDS011;8882;53.192;8.184;2022-07-23T05:05:19;4.30;;;2.40;;
17528;SDS011;8882;53.192;8.184;2022-07-23T05:07:45;4.07;;;2.50;;
17528;SDS011;8882;53.192;8.184;2022-07-23T05:10:10;3.40;;;2.23;;
17528;SDS011;8882;53.192;8.184;2022-07-23T05:12:36;3.23;;;2.37;;
17528;SDS011;8882;53.192;8.184;2022-07-23T05:15:01;3.07;;;2.03;;
17528;SDS011;8882;53.192;8.184;2022-07-23T05:17:27;4.90;;;2.70;;
17528;SDS011;8882;53.192;8.184;2022-07-23T05:19:53;4.23;;;2.50;;
17528;SDS011;8882;53.192;8.184;2022-07-23T05:22:18;5.73;;;2.40;;
17528;SDS011;8882;53.192;8.184;2022-07-23T05:24:44;5.23;;;2.43;;
17528;SDS011;8882;53.192;8.184;2022-07-23T05:27:09;3.77;;;2.63;;
17528;SDS011;8882;53.192;8.184;2022-07-23T05:29:35;5.07;;;2.33;;
17528;SDS011;8882;53.192;8.184;2022-07-23T05:32:00;5.40;;;2.67;;
17528;SDS011;8882;53.192;8.184;2022-07-23T05:34:26;4.17;;;2.57;;
17528;SDS011;8882;53.192;8.184;2022-07-23T05:36:51;3.87;;;2.57;;
17528;SDS011;8882;53.192;8.184;2022-07-23T05:39:17;2.87;;;2.37;;
17528;SDS011;8882;53.192;8.184;2022-07-23T05:41:42;4.03;;;2.23;;
17528;SDS011;8882;53.192;8.184;2022-07-23T05:44:08;6.00;;;3.07;;
17528;SDS011;8882;53.192;8.184;2022-07-23T05:46:33;4.43;;;2.97;;
17528;SDS011;8882;53.192;8.184;2022-07-23T05:48:59;3.23;;;2.70;;
17528;SDS011;8882;53.192;8.184;2022-07-23T05:51:25;7.83;;;2.47;;
17528;SDS011;8882;53.192;8.184;2022-07-23T05:53:50;2.90;;;2.10;;
17528;SDS011;8882;53.192;8.184;2022-07-23T05:56:18;2.23;;;2.03;;
17528;SDS011;8882;53.192;8.184;2022-07-23T05:58:44;5.00;;;2.33;;
17528;SDS011;8882;53.192;8.184;2022-07-23T06:01:10;3.57;;;2.40;;
17528;SDS011;8882;53.192;8.184;2022-07-23T06:03:36;3.07;;;2.73;;
17528;SDS011;8882;53.192;8.184;2022-07-23T06:06:02;2.37;;;2.00;;
17528;SDS011;8882;53.192;8.184;2022-07-23T06:08:28;1.80;;;1.50;;
17528;SDS011;8882;53.192;8.184;2022-07-23T06:10:53;1.93;;;1.63;;
17528;SDS011;8882;53.192;8.184;2022-07-23T06:13:19;3.17;;;2.03;;
17528;SDS011;8882;53.192;8.184;2022-07-23T06:15:45;3.60;;;1.70;;
17528;SDS011;8882;53.192;8.184;2022-07-23T06:18:10;2.60;;;1.77;;
17528;SDS011;8882;53.192;8.184;2022-07-23T06:20:36;2.03;;;1.53;;
17528;SDS011;8882;53.192;8.184;2022-07-23T06:23:01;1.93;;;1.60;;
17528;SDS011;8882;53.192;8.184;2022-07-23T06:25:27;2.07;;;1.93;;
17528;SDS011;8882;53.192;8.184;2022-07-23T06:27:53;5.87;;;2.03;;
17528;SDS011;8882;53.192;8.184;2022-07-23T06:30:18;3.07;;;1.90;;
17528;SDS011;8882;53.192;8.184;2022-07-23T06:32:44;6.13;;;2.20;;
17528;SDS011;8882;53.192;8.184;2022-07-23T06:35:11;2.80;;;1.73;;
17528;SDS011;8882;53.192;8.184;2022-07-23T06:37:36;3.23;;;1.80;;
17528;SDS011;8882;53.192;8.184;2022-07-23T06:40:02;2.93;;;1.70;;
17528;SDS011;8882;53.192;8.184;2022-07-23T06:42:28;3.53;;;1.70;;
17528;SDS011;8882;53.192;8.184;2022-07-23T06:44:54;4.47;;;1.90;;
17528;SDS011;8882;53.192;8.184;2022-07-23T06:47:19;8.07;;;1.70;;
17528;SDS011;8882;53.192;8.184;2022-07-23T06:49:44;3.17;;;1.63;;
17528;SDS011;8882;53.192;8.184;2022-07-23T06:52:10;4.90;;;1.60;;
17528;SDS011;8882;53.192;8.184;2022-07-23T06:54:36;2.17;;;1.40;;
17528;SDS011;8882;53.192;8.184;2022-07-23T06:57:01;2.57;;;1.80;;
17528;SDS011;8882;53.192;8.184;2022-07-23T06:59:27;2.50;;;1.40;;
17528;SDS011;8882;53.192;8.184;2022-07-23T07:01:53;2.37;;;1.73;;
17528;SDS011;8882;53.192;8.184;2022-07-23T07:04:18;1.63;;;1.53;;
17528;SDS011;8882;53.192;8.184;2022-07-23T07:06:44;5.27;;;1.50;;
17528;SDS011;8882;53.192;8.184;2022-07-23T07:09:09;3.70;;;1.40;;
17528;SDS011;8882;53.192;8.184;2022-07-23T07:11:35;2.43;;;1.57;;
17528;SDS011;8882;53.192;8.184;2022-07-23T07:14:00;2.77;;;1.67;;
17528;SDS011;8882;53.192;8.184;2022-07-23T07:16:26;5.93;;;1.93;;
17528;SDS011;8882;53.192;8.184;2022-07-23T07:18:53;4.47;;;2.00;;
17528;SDS011;8882;53.192;8.184;2022-07-23T07:21:18;1.77;;;1.67;;
17528;SDS011;8882;53.192;8.184;2022-07-23T07:23:44;4.40;;;1.83;;
17528;SDS011;8882;53.192;8.184;2022-07-23T07:26:09;2.87;;;1.60;;
17528;SDS011;8882;53.192;8.184;2022-07-23T07:28:35;5.03;;;1.70;;
17528;SDS011;8882;53.192;8.184;2022-07-23T07:31:00;4.23;;;1.87;;
17528;SDS011;8882;53.192;8.184;2022-07-23T07:33:26;2.00;;;1.20;;
17528;SDS011;8882;53.192;8.184;2022-07-23T07:35:51;3.93;;;1.30;;
17528;SDS011;8882;53.192;8.184;2022-07-23T07:38:17;2.87;;;1.43;;
17528;SDS011;8882;53.192;8.184;2022-07-23T07:40:42;4.07;;;1.47;;
17528;SDS011;8882;53.192;8.184;2022-07-23T07:43:08;3.80;;;1.57;;
17528;SDS011;8882;53.192;8.184;2022-07-23T07:45:33;1.47;;;1.37;;
17528;SDS011;8882;53.192;8.184;2022-07-23T07:47:59;5.43;;;1.40;;
17528;SDS011;8882;53.192;8.184;2022-07-23T07:50:25;1.73;;;1.43;;
17528;SDS011;8882;53.192;8.184;2022-07-23T07:52:50;1.70;;;1.30;;
17528;SDS011;8882;53.192;8.184;2022-07-23T07:55:16;1.73;;;1.30;;
17528;SDS011;8882;53.192;8.184;2022-07-23T07:57:42;1.50;;;1.40;;
17528;SDS011;8882;53.192;8.184;2022-07-23T08:00:08;1.37;;;1.27;;
17528;SDS011;8882;53.192;8.184;2022-07-23T08:02:44;1.33;;;1.20;;
17528;SDS011;8882;53.192;8.184;2022-07-23T08:05:12;1.40;;;1.30;;
17528;SDS011;8882;53.192;8.184;2022-07-23T08:07:38;2.00;;;1.60;;
17528;SDS011;8882;53.192;8.184;2022-07-23T08:10:05;2.30;;;1.20;;
17528;SDS011;8882;53.192;8.184;2022-07-23T08:12:38;1.80;;;1.63;;
17528;SDS011;8882;53.192;8.184;2022-07-23T08:15:04;1.10;;;1.03;;
17528;SDS011;8882;53.192;8.184;2022-07-23T08:17:31;1.50;;;0.97;;
17528;SDS011;8882;53.192;8.184;2022-07-23T08:19:56;1.20;;;1.10;;
17528;SDS011;8882;53.192;8.184;2022-07-23T08:22:22;0.83;;;0.70;;
17528;SDS011;8882;53.192;8.184;2022-07-23T08:24:47;0.80;;;0.80;;
17528;SDS011;8882;53.192;8.184;2022-07-23T08:27:13;1.60;;;1.00;;
17528;SDS011;8882;53.192;8.184;2022-07-23T08:29:38;0.90;;;0.70;;
17528;SDS011;8882;53.192;8.184;2022-07-23T08:32:04;4.03;;;0.80;;
17528;SDS011;8882;53.192;8.184;2022-07-23T08:34:29;1.50;;;0.63;;
17528;SDS011;8882;53.192;8.184;2022-07-23T08:36:55;0.60;;;0.50;;
17528;SDS011;8882;53.192;8.184;2022-07-23T08:39:20;1.67;;;0.67;;
17528;SDS011;8882;53.192;8.184;2022-07-23T08:41:46;0.60;;;0.60;;
17528;SDS011;8882;53.192;8.184;2022-07-23T08:44:13;1.87;;;0.67;;
17528;SDS011;8882;53.192;8.184;2022-07-23T08:46:41;0.40;;;0.40;;
17528;SDS011;8882;53.192;8.184;2022-07-23T08:49:06;0.60;;;0.50;;
17528;SDS011;8882;53.192;8.184;2022-07-23T08:51:33;1.23;;;0.57;;
17528;SDS011;8882;53.192;8.184;2022-07-23T08:53:58;0.63;;;0.60;;
17528;SDS011;8882;53.192;8.184;2022-07-23T08:56:25;0.70;;;0.70;;
17528;SDS011;8882;53.192;8.184;2022-07-23T08:58:50;0.53;;;0.53;;
17528;SDS011;8882;53.192;8.184;2022-07-23T09:01:18;0.87;;;0.87;;
17528;SDS011;8882;53.192;8.184;2022-07-23T09:03:44;1.70;;;0.60;;
17528;SDS011;8882;53.192;8.184;2022-07-23T09:06:10;0.83;;;0.60;;
17528;SDS011;8882;53.192;8.184;2022-07-23T09:08:39;2.63;;;0.60;;
17528;SDS011;8882;53.192;8.184;2022-07-23T09:11:07;0.60;;;0.60;;
17528;SDS011;8882;53.192;8.184;2022-07-23T09:13:35;0.47;;;0.47;;
17528;SDS011;8882;53.192;8.184;2022-07-23T09:16:05;0.57;;;0.50;;
17528;SDS011;8882;53.192;8.184;2022-07-23T09:21:13;0.60;;;0.60;;
17528;SDS011;8882;53.192;8.184;2022-07-23T09:23:56;0.40;;;0.40;;
17528;SDS011;8882;53.192;8.184;2022-07-23T09:26:38;1.33;;;0.60;;
17528;SDS011;8882;53.192;8.184;2022-07-23T09:34:19;0.70;;;0.70;;
17528;SDS011;8882;53.192;8.184;2022-07-23T09:36:47;1.03;;;0.60;;
17528;SDS011;8882;53.192;8.184;2022-07-23T09:39:14;1.63;;;0.60;;
17528;SDS011;8882;53.192;8.184;2022-07-23T09:41:43;0.70;;;0.70;;
17528;SDS011;8882;53.192;8.184;2022-07-23T09:44:11;0.53;;;0.53;;
17528;SDS011;8882;53.192;8.184;2022-07-23T09:46:39;1.13;;;0.50;;
17528;SDS011;8882;53.192;8.184;2022-07-23T09:49:12;0.57;;;0.50;;
17528;SDS011;8882;53.192;8.184;2022-07-23T09:51:48;0.50;;;0.50;;
17528;SDS011;8882;53.192;8.184;2022-07-23T09:54:26;1.80;;;0.40;;
17528;SDS011;8882;53.192;8.184;2022-07-23T09:57:06;0.63;;;0.47;;
17528;SDS011;8882;53.192;8.184;2022-07-23T09:59:35;0.53;;;0.53;;
17528;SDS011;8882;53.192;8.184;2022-07-23T10:02:03;0.40;;;0.40;;
17528;SDS011;8882;53.192;8.184;2022-07-23T10:04:30;1.50;;;0.53;;
17528;SDS011;8882;53.192;8.184;2022-07-23T10:06:57;0.40;;;0.40;;
17528;SDS011;8882;53.192;8.184;2022-07-23T10:09:25;0.80;;;0.70;;
17528;SDS011;8882;53.192;8.184;2022-07-23T10:11:53;0.40;;;0.40;;
17528;SDS011;8882;53.192;8.184;2022-07-23T10:14:33;3.03;;;0.50;;
17528;SDS011;8882;53.192;8.184;2022-07-23T10:17:02;0.33;;;0.33;;
17528;SDS011;8882;53.192;8.184;2022-07-23T10:19:28;0.60;;;0.50;;
17528;SDS011;8882;53.192;8.184;2022-07-23T10:22:06;0.60;;;0.60;;
17528;SDS011;8882;53.192;8.184;2022-07-23T10:30:52;1.13;;;0.60;;
17528;SDS011;8882;53.192;8.184;2022-07-23T10:33:29;0.60;;;0.60;;
17528;SDS011;8882;53.192;8.184;2022-07-23T10:36:24;0.50;;;0.40;;
17528;SDS011;8882;53.192;8.184;2022-07-23T10:39:08;0.67;;;0.57;;
17528;SDS011;8882;53.192;8.184;2022-07-23T10:41:40;0.37;;;0.37;;
17528;SDS011;8882;53.192;8.184;2022-07-23T10:46:55;0.95;;;0.60;;
17528;SDS011;8882;53.192;8.184;2022-07-23T10:49:41;0.40;;;0.40;;
17528;SDS011;8882;53.192;8.184;2022-07-23T10:54:39;0.50;;;0.50;;
17528;SDS011;8882;53.192;8.184;2022-07-23T10:57:25;0.40;;;0.40;;
17528;SDS011;8882;53.192;8.184;2022-07-23T11:02:34;0.60;;;0.60;;
17528;SDS011;8882;53.192;8.184;2022-07-23T11:05:04;0.40;;;0.40;;
17528;SDS011;8882;53.192;8.184;2022-07-23T11:07:32;0.45;;;0.30;;
17528;SDS011;8882;53.192;8.184;2022-07-23T11:09:58;0.40;;;0.40;;
17528;SDS011;8882;53.192;8.184;2022-07-23T11:15:05;0.40;;;0.40;;
17528;SDS011;8882;53.192;8.184;2022-07-23T11:17:36;1.05;;;0.55;;
17528;SDS011;8882;53.192;8.184;2022-07-23T11:25:12;0.40;;;0.40;;
17528;SDS011;8882;53.192;8.184;2022-07-23T11:27:54;0.40;;;0.40;;
17528;SDS011;8882;53.192;8.184;2022-07-23T11:33:37;0.52;;;0.40;;
17528;SDS011;8882;53.192;8.184;2022-07-23T11:35:42;0.93;;;0.55;;
17528;SDS011;8882;53.192;8.184;2022-07-23T11:38:17;0.50;;;0.50;;
17528;SDS011;8882;53.192;8.184;2022-07-23T11:40:46;0.60;;;0.55;;
17528;SDS011;8882;53.192;8.184;2022-07-23T11:43:16;0.38;;;0.38;;
17528;SDS011;8882;53.192;8.184;2022-07-23T11:45:43;1.05;;;0.50;;
17528;SDS011;8882;53.192;8.184;2022-07-23T11:50:42;0.40;;;0.40;;
17528;SDS011;8882;53.192;8.184;2022-07-23T11:53:08;1.17;;;0.60;;
17528;SDS011;8882;53.192;8.184;2022-07-23T11:55:33;0.73;;;0.50;;
17528;SDS011;8882;53.192;8.184;2022-07-23T11:57:59;0.43;;;0.43;;
17528;SDS011;8882;53.192;8.184;2022-07-23T12:00:25;0.50;;;0.50;;
17528;SDS011;8882;53.192;8.184;2022-07-23T12:02:54;0.60;;;0.60;;
17528;SDS011;8882;53.192;8.184;2022-07-23T12:05:33;0.68;;;0.40;;
17528;SDS011;8882;53.192;8.184;2022-07-23T12:08:00;0.60;;;0.60;;
17528;SDS011;8882;53.192;8.184;2022-07-23T12:10:29;1.60;;;0.70;;
17528;SDS011;8882;53.192;8.184;2022-07-23T12:12:59;0.68;;;0.50;;
17528;SDS011;8882;53.192;8.184;2022-07-23T12:15:28;0.60;;;0.60;;
17528;SDS011;8882;53.192;8.184;2022-07-23T12:18:05;0.40;;;0.40;;
17528;SDS011;8882;53.192;8.184;2022-07-23T12:20:34;0.40;;;0.40;;
17528;SDS011;8882;53.192;8.184;2022-07-23T12:23:07;1.08;;;0.70;;
17528;SDS011;8882;53.192;8.184;2022-07-23T12:25:35;0.88;;;0.70;;
17528;SDS011;8882;53.192;8.184;2022-07-23T12:30:40;1.65;;;0.45;;
17528;SDS011;8882;53.192;8.184;2022-07-23T12:33:26;0.43;;;0.40;;
17528;SDS011;8882;53.192;8.184;2022-07-23T12:36:15;1.35;;;0.85;;
17528;SDS011;8882;53.192;8.184;2022-07-23T12:38:42;0.63;;;0.50;;
17528;SDS011;8882;53.192;8.184;2022-07-23T12:41:11;0.50;;;0.50;;
17528;SDS011;8882;53.192;8.184;2022-07-23T12:43:37;1.17;;;0.90;;
17528;SDS011;8882;53.192;8.184;2022-07-23T12:46:06;0.50;;;0.50;;
17528;SDS011;8882;53.192;8.184;2022-07-23T12:48:34;0.88;;;0.60;;
17528;SDS011;8882;53.192;8.184;2022-07-23T12:53:37;0.52;;;0.52;;
17528;SDS011;8882;53.192;8.184;2022-07-23T12:56:07;0.50;;;0.50;;
17528;SDS011;8882;53.192;8.184;2022-07-23T12:58:42;0.82;;;0.55;;
17528;SDS011;8882;53.192;8.184;2022-07-23T13:01:08;0.73;;;0.60;;
17528;SDS011;8882;53.192;8.184;2022-07-23T13:03:36;0.52;;;0.50;;
17528;SDS011;8882;53.192;8.184;2022-07-23T13:06:04;1.27;;;0.70;;
17528;SDS011;8882;53.192;8.184;2022-07-23T13:08:31;0.60;;;0.60;;
17528;SDS011;8882;53.192;8.184;2022-07-23T13:10:58;0.47;;;0.47;;
17528;SDS011;8882;53.192;8.184;2022-07-23T13:13:25;1.27;;;0.50;;
17528;SDS011;8882;53.192;8.184;2022-07-23T13:15:53;0.95;;;0.60;;
17528;SDS011;8882;53.192;8.184;2022-07-23T13:18:19;0.43;;;0.43;;
17528;SDS011;8882;53.192;8.184;2022-07-23T13:20:46;0.43;;;0.40;;
17528;SDS011;8882;53.192;8.184;2022-07-23T13:23:13;0.57;;;0.57;;
17528;SDS011;8882;53.192;8.184;2022-07-23T13:25:39;1.08;;;0.55;;
17528;SDS011;8882;53.192;8.184;2022-07-23T13:28:05;0.60;;;0.60;;
17528;SDS011;8882;53.192;8.184;2022-07-23T13:30:30;0.68;;;0.50;;
17528;SDS011;8882;53.192;8.184;2022-07-23T13:32:56;0.98;;;0.60;;
17528;SDS011;8882;53.192;8.184;2022-07-23T13:35:22;3.50;;;0.68;;
17528;SDS011;8882;53.192;8.184;2022-07-23T13:37:48;0.75;;;0.60;;
17528;SDS011;8882;53.192;8.184;2022-07-23T13:40:13;3.70;;;0.68;;
17528;SDS011;8882;53.192;8.184;2022-07-23T13:42:39;1.08;;;0.52;;
17528;SDS011;8882;53.192;8.184;2022-07-23T13:45:05;1.45;;;0.50;;
17528;SDS011;8882;53.192;8.184;2022-07-23T13:47:31;1.52;;;0.80;;
17528;SDS011;8882;53.192;8.184;2022-07-23T13:49:57;0.77;;;0.60;;
17528;SDS011;8882;53.192;8.184;2022-07-23T13:52:22;0.60;;;0.60;;
17528;SDS011;8882;53.192;8.184;2022-07-23T13:54:49;0.50;;;0.50;;
17528;SDS011;8882;53.192;8.184;2022-07-23T13:57:14;0.40;;;0.40;;
17528;SDS011;8882;53.192;8.184;2022-07-23T13:59:40;0.68;;;0.60;;
17528;SDS011;8882;53.192;8.184;2022-07-23T14:02:05;0.85;;;0.50;;
17528;SDS011;8882;53.192;8.184;2022-07-23T14:04:32;1.25;;;0.60;;
17528;SDS011;8882;53.192;8.184;2022-07-23T14:06:58;2.28;;;0.60;;
17528;SDS011;8882;53.192;8.184;2022-07-23T14:09:23;1.15;;;0.60;;
17528;SDS011;8882;53.192;8.184;2022-07-23T14:11:50;0.60;;;0.60;;
17528;SDS011;8882;53.192;8.184;2022-07-23T14:14:16;0.60;;;0.60;;
17528;SDS011;8882;53.192;8.184;2022-07-23T14:16:43;0.50;;;0.50;;
17528;SDS011;8882;53.192;8.184;2022-07-23T14:19:08;0.68;;;0.60;;
17528;SDS011;8882;53.192;8.184;2022-07-23T14:21:35;1.05;;;0.50;;
17528;SDS011;8882;53.192;8.184;2022-07-23T14:24:01;0.77;;;0.52;;
17528;SDS011;8882;53.192;8.184;2022-07-23T14:26:27;0.70;;;0.50;;
17528;SDS011;8882;53.192;8.184;2022-07-23T14:28:53;1.80;;;0.60;;
17528;SDS011;8882;53.192;8.184;2022-07-23T14:31:18;0.50;;;0.50;;
17528;SDS011;8882;53.192;8.184;2022-07-23T14:33:44;1.80;;;0.68;;
17528;SDS011;8882;53.192;8.184;2022-07-23T14:36:09;0.50;;;0.50;;
17528;SDS011;8882;53.192;8.184;2022-07-23T14:38:35;1.77;;;0.80;;
17528;SDS011;8882;53.192;8.184;2022-07-23T14:41:00;1.30;;;0.70;;
17528;SDS011;8882;53.192;8.184;2022-07-23T14:43:26;2.40;;;2.17;;
17528;SDS011;8882;53.192;8.184;2022-07-23T14:45:51;3.42;;;2.83;;
17528;SDS011;8882;53.192;8.184;2022-07-23T14:48:17;1.38;;;0.90;;
17528;SDS011;8882;53.192;8.184;2022-07-23T14:50:42;0.85;;;0.65;;
17528;SDS011;8882;53.192;8.184;2022-07-23T14:53:08;1.67;;;0.63;;
17528;SDS011;8882;53.192;8.184;2022-07-23T14:55:34;0.60;;;0.60;;
17528;SDS011;8882;53.192;8.184;2022-07-23T14:57:59;0.85;;;0.57;;
17528;SDS011;8882;53.192;8.184;2022-07-23T15:00:25;0.98;;;0.70;;
17528;SDS011;8882;53.192;8.184;2022-07-23T15:02:51;1.40;;;0.80;;
17528;SDS011;8882;53.192;8.184;2022-07-23T15:05:17;1.38;;;1.00;;
17528;SDS011;8882;53.192;8.184;2022-07-23T15:07:43;0.60;;;0.60;;
17528;SDS011;8882;53.192;8.184;2022-07-23T15:10:08;0.80;;;0.80;;
17528;SDS011;8882;53.192;8.184;2022-07-23T15:12:34;1.40;;;0.70;;
17528;SDS011;8882;53.192;8.184;2022-07-23T15:14:59;1.10;;;0.63;;
17528;SDS011;8882;53.192;8.184;2022-07-23T15:17:25;0.60;;;0.60;;
17528;SDS011;8882;53.192;8.184;2022-07-23T15:19:51;1.35;;;0.90;;
17528;SDS011;8882;53.192;8.184;2022-07-23T15:22:16;0.90;;;0.90;;
17528;SDS011;8882;53.192;8.184;2022-07-23T15:24:42;1.05;;;0.80;;
17528;SDS011;8882;53.192;8.184;2022-07-23T15:27:09;0.70;;;0.70;;
17528;SDS011;8882;53.192;8.184;2022-07-23T15:29:34;0.68;;;0.60;;
17528;SDS011;8882;53.192;8.184;2022-07-23T15:32:00;0.63;;;0.63;;
17528;SDS011;8882;53.192;8.184;2022-07-23T15:34:26;2.60;;;0.73;;
17528;SDS011;8882;53.192;8.184;2022-07-23T15:36:52;0.88;;;0.88;;
17528;SDS011;8882;53.192;8.184;2022-07-23T15:39:17;1.00;;;1.00;;